Arba, Indiana
Current Conditions -  °F | °C
As of 4:53 AM on Thursday 29 Jan 2015 (Local Time) from KMIE Reporting Station
Light Rain Light Rain  
Wind Chill: 28°   Ceiling: 7500
Heat Index: 38°   Visibility: 10mi
Dew Point: 25°   Wind: 18mph
Humidity: 60%   Direction: 190°S
Pressure: 29.83"   Gusts: 30mph
Location:  40.0606°N, 84.9258°W
Report Text: KMIE 290953Z AUTO 19016G26KT 10SM -RA OVC075 03/M04 A2983 RMK AO2 PK WND 18033/0936 RAB12 SLP104 P0000 T00331039
Loading
Personal Weather Stations






























Interactive Weather Map New forecast layout! Learn more

10-Day Weather Forecast

Advertisements
Track Severe Weather on mobile